createdAt,value
2018-12-06T00:00:57.300Z,4.73
2018-12-06T00:03:25.628Z,4.63
2018-12-06T00:05:53.996Z,5.30
2018-12-06T00:08:22.332Z,4.60
2018-12-06T00:10:50.664Z,4.70
2018-12-06T00:13:19.135Z,5.30
2018-12-06T00:15:47.472Z,4.67
2018-12-06T00:18:15.819Z,4.67
2018-12-06T00:20:44.282Z,6.00
2018-12-06T00:23:12.655Z,4.97
2018-12-06T00:25:41.016Z,5.10
2018-12-06T00:28:09.371Z,5.17
2018-12-06T00:30:41.483Z,4.90
2018-12-06T00:33:09.978Z,5.43
2018-12-06T00:35:38.496Z,5.83
2018-12-06T00:38:06.863Z,6.30
2018-12-06T00:40:35.206Z,5.63
2018-12-06T00:43:03.548Z,5.53
2018-12-06T00:45:32.013Z,6.43
2018-12-06T00:48:00.371Z,6.33
2018-12-06T00:50:29.003Z,5.90
2018-12-06T00:52:57.483Z,5.40
2018-12-06T00:55:25.855Z,5.27
2018-12-06T00:57:54.338Z,5.87
2018-12-06T01:00:22.819Z,6.27
2018-12-06T01:02:51.194Z,6.50
2018-12-06T01:05:19.542Z,7.63
2018-12-06T01:07:48.039Z,5.60
2018-12-06T01:10:16.398Z,6.87
2018-12-06T01:12:44.843Z,6.00
2018-12-06T01:15:13.183Z,6.47
2018-12-06T01:17:41.559Z,6.40
2018-12-06T01:20:09.896Z,6.87
2018-12-06T01:22:38.252Z,6.43
2018-12-06T01:25:07.081Z,5.73
2018-12-06T01:27:35.412Z,6.30
2018-12-06T01:30:04.328Z,6.33
2018-12-06T01:32:32.827Z,6.33
2018-12-06T01:35:01.299Z,6.30
2018-12-06T01:37:29.660Z,6.17
2018-12-06T01:39:58.012Z,6.07
2018-12-06T01:42:26.379Z,6.90
2018-12-06T01:44:54.751Z,7.30
2018-12-06T01:47:23.140Z,7.33
2018-12-06T01:49:51.507Z,7.70
2018-12-06T01:52:19.851Z,7.07
2018-12-06T01:54:48.213Z,6.83
2018-12-06T01:57:16.599Z,8.03
2018-12-06T01:59:44.951Z,8.40
2018-12-06T02:02:13.324Z,8.00
2018-12-06T02:04:41.655Z,7.67
2018-12-06T02:07:10.019Z,8.60
2018-12-06T02:09:38.359Z,8.73
2018-12-06T02:12:06.831Z,8.53
2018-12-06T02:14:35.180Z,9.13
2018-12-06T02:17:03.540Z,9.93
2018-12-06T02:19:31.906Z,10.53
2018-12-06T02:22:00.315Z,8.93
2018-12-06T02:24:28.771Z,9.57
2018-12-06T02:26:57.115Z,9.63
2018-12-06T02:29:27.511Z,9.20
2018-12-06T02:31:55.889Z,9.37
2018-12-06T02:34:24.240Z,9.53
2018-12-06T02:36:52.587Z,10.60
2018-12-06T02:39:20.996Z,10.17
2018-12-06T02:41:49.644Z,11.30
2018-12-06T02:44:18.007Z,11.80
2018-12-06T02:46:46.351Z,13.33
2018-12-06T02:49:14.704Z,13.37
2018-12-06T02:51:43.092Z,12.27
2018-12-06T02:54:11.447Z,12.77
2018-12-06T02:56:39.838Z,12.27
2018-12-06T02:59:08.203Z,14.07
2018-12-06T03:01:36.579Z,13.57
2018-12-06T03:04:04.908Z,13.93
2018-12-06T03:06:33.325Z,14.43
2018-12-06T03:09:01.696Z,13.67
2018-12-06T03:11:30.031Z,13.83
2018-12-06T03:13:58.488Z,13.63
2018-12-06T03:16:26.843Z,14.63
2018-12-06T03:18:55.345Z,15.33
2018-12-06T03:21:23.703Z,14.53
2018-12-06T03:23:52.026Z,16.23
2018-12-06T03:26:20.512Z,15.30
2018-12-06T03:28:48.848Z,15.50
2018-12-06T03:31:17.208Z,15.27
2018-12-06T03:33:45.685Z,16.33
2018-12-06T03:36:14.044Z,14.97
2018-12-06T03:38:47.390Z,15.43
2018-12-06T03:41:15.784Z,16.60
2018-12-06T03:43:44.154Z,16.27
2018-12-06T03:46:12.501Z,17.87
2018-12-06T03:48:40.900Z,17.10
2018-12-06T03:51:09.353Z,16.93
2018-12-06T03:53:37.715Z,17.57
2018-12-06T03:56:06.145Z,18.20
2018-12-06T03:58:34.546Z,17.60
2018-12-06T04:01:02.888Z,17.33
2018-12-06T04:03:31.855Z,17.00
2018-12-06T04:06:00.220Z,16.87
2018-12-06T04:08:28.586Z,17.73
2018-12-06T04:10:57.004Z,17.90
2018-12-06T04:13:25.367Z,18.13
2018-12-06T04:15:53.853Z,18.37
2018-12-06T04:18:22.236Z,16.93
2018-12-06T04:20:50.571Z,18.77
2018-12-06T04:23:18.973Z,16.80
2018-12-06T04:25:47.359Z,18.63
2018-12-06T04:28:15.732Z,18.60
2018-12-06T04:30:44.101Z,19.43
2018-12-06T04:35:47.116Z,19.10
2018-12-06T04:38:15.458Z,19.60
2018-12-06T04:40:43.838Z,18.60
2018-12-06T04:43:12.189Z,18.30
2018-12-06T04:45:40.543Z,19.27
2018-12-06T04:48:08.916Z,18.90
2018-12-06T04:50:37.295Z,18.17
2018-12-06T04:53:05.627Z,19.47
2018-12-06T04:55:35.574Z,19.77
2018-12-06T04:58:04.263Z,18.97
2018-12-06T05:00:32.631Z,19.63
2018-12-06T05:03:00.958Z,19.17
2018-12-06T05:05:29.314Z,18.63
2018-12-06T05:07:57.715Z,19.13
2018-12-06T05:10:26.071Z,19.00
2018-12-06T05:12:54.421Z,19.23
2018-12-06T05:15:22.766Z,18.57
2018-12-06T05:17:51.102Z,18.97
2018-12-06T05:20:19.477Z,19.63
2018-12-06T05:22:47.818Z,20.27
2018-12-06T05:25:16.187Z,19.13
2018-12-06T05:27:44.651Z,20.60
2018-12-06T05:30:13.018Z,19.23
2018-12-06T05:32:41.379Z,18.77
2018-12-06T05:35:09.814Z,20.37
2018-12-06T05:37:38.131Z,18.73
2018-12-06T05:40:06.639Z,18.63
2018-12-06T05:42:35.019Z,19.43
2018-12-06T05:45:03.567Z,19.27
2018-12-06T05:47:31.946Z,18.93
2018-12-06T05:50:00.265Z,20.77
2018-12-06T05:52:28.630Z,20.40
2018-12-06T05:54:56.946Z,20.20
2018-12-06T05:57:25.319Z,20.13
2018-12-06T05:59:53.672Z,19.33
2018-12-06T06:02:22.039Z,20.87
2018-12-06T06:04:50.410Z,21.37
2018-12-06T06:07:18.872Z,21.87
2018-12-06T06:09:47.204Z,21.47
2018-12-06T06:12:15.572Z,21.60
2018-12-06T06:14:43.991Z,20.23
2018-12-06T06:17:12.432Z,23.00
2018-12-06T06:19:40.867Z,19.57
2018-12-06T06:22:09.235Z,21.93
2018-12-06T06:24:37.579Z,20.93
2018-12-06T06:27:05.963Z,22.67
2018-12-06T06:29:34.411Z,23.20
2018-12-06T06:32:02.891Z,23.20
2018-12-06T06:34:31.235Z,23.40
2018-12-06T06:36:59.615Z,23.10
2018-12-06T06:39:27.962Z,23.10
2018-12-06T06:41:56.350Z,23.60
2018-12-06T06:44:24.659Z,22.50
2018-12-06T06:46:53.015Z,23.30
2018-12-06T06:49:21.381Z,24.23
2018-12-06T06:51:49.737Z,24.10
2018-12-06T06:54:18.139Z,25.13
2018-12-06T06:56:46.520Z,23.20
2018-12-06T06:59:14.970Z,24.30
2018-12-06T07:01:43.310Z,24.40
2018-12-06T07:04:11.723Z,22.63
2018-12-06T07:06:40.122Z,25.47
2018-12-06T07:09:08.866Z,25.00
2018-12-06T07:11:37.421Z,25.37
2018-12-06T07:14:05.778Z,30.83
2018-12-06T07:16:34.236Z,27.40
2018-12-06T07:19:02.922Z,26.57
2018-12-06T07:21:31.261Z,27.20
2018-12-06T07:24:00.876Z,26.70
2018-12-06T07:26:29.924Z,25.77
2018-12-06T07:28:58.431Z,28.50
2018-12-06T07:31:26.775Z,25.80
2018-12-06T07:33:55.237Z,27.03
2018-12-06T07:36:23.605Z,28.23
2018-12-06T07:38:51.961Z,25.77
2018-12-06T07:41:20.371Z,26.80
2018-12-06T07:43:48.747Z,25.87
2018-12-06T07:46:17.175Z,27.40
2018-12-06T07:48:45.867Z,25.97
2018-12-06T07:51:14.237Z,26.23
2018-12-06T07:53:42.955Z,28.30
2018-12-06T07:56:11.575Z,28.53
2018-12-06T07:58:40.101Z,27.73
2018-12-06T08:01:09.299Z,30.10
2018-12-06T08:03:37.674Z,30.07
2018-12-06T08:06:06.140Z,29.30
2018-12-06T08:08:34.475Z,28.50
2018-12-06T08:11:02.829Z,32.23
2018-12-06T08:13:31.720Z,30.90
2018-12-06T08:16:00.082Z,32.77
2018-12-06T08:18:28.581Z,33.33
2018-12-06T08:20:57.097Z,34.30
2018-12-06T08:23:28.254Z,31.97
2018-12-06T08:26:01.046Z,33.07
2018-12-06T08:28:30.339Z,33.93
2018-12-06T08:30:59.112Z,34.77
2018-12-06T08:33:27.456Z,34.03
2018-12-06T08:35:55.831Z,33.77
2018-12-06T08:38:24.178Z,35.47
2018-12-06T08:40:52.662Z,35.33
2018-12-06T08:43:21.018Z,35.93
2018-12-06T08:45:53.103Z,33.93
2018-12-06T08:48:21.464Z,35.63
2018-12-06T08:50:49.934Z,35.07
2018-12-06T08:53:18.344Z,34.73
2018-12-06T08:55:46.770Z,35.83
2018-12-06T08:58:16.046Z,36.80
2018-12-06T09:00:44.413Z,36.77
2018-12-06T09:03:12.807Z,33.87
2018-12-06T09:05:47.539Z,34.67
2018-12-06T09:08:15.935Z,35.73
2018-12-06T09:10:51.350Z,36.17
2018-12-06T09:13:14.734Z,34.40
2018-12-06T09:15:43.106Z,35.80
2018-12-06T09:18:11.452Z,34.67
2018-12-06T09:20:39.940Z,36.03
2018-12-06T09:23:08.286Z,36.13
2018-12-06T09:25:38.334Z,37.83
2018-12-06T09:28:10.266Z,36.17
2018-12-06T09:30:45.296Z,37.33
2018-12-06T09:33:13.651Z,36.43
2018-12-06T09:35:42.007Z,37.23
2018-12-06T09:38:10.330Z,35.90
2018-12-06T09:40:38.962Z,39.87
2018-12-06T09:43:07.422Z,38.07
2018-12-06T09:45:35.792Z,37.67
2018-12-06T09:48:04.155Z,37.50
2018-12-06T09:50:34.370Z,38.70
2018-12-06T09:53:02.731Z,39.57
2018-12-06T09:55:31.091Z,37.33
2018-12-06T09:57:59.566Z,39.43
2018-12-06T10:00:27.940Z,38.90
2018-12-06T10:02:56.310Z,37.03
2018-12-06T10:05:24.651Z,39.40
2018-12-06T10:07:53.043Z,36.80
2018-12-06T10:10:24.219Z,40.07
2018-12-06T10:12:52.587Z,36.90
2018-12-06T10:15:21.299Z,37.83
2018-12-06T10:17:49.662Z,39.17
2018-12-06T10:20:23.724Z,36.13
2018-12-06T10:22:52.071Z,41.07
2018-12-06T10:25:20.698Z,38.87
2018-12-06T10:27:50.377Z,38.57
2018-12-06T10:30:19.059Z,38.63
2018-12-06T10:32:47.434Z,37.57
2018-12-06T10:35:15.767Z,39.67
2018-12-06T10:37:44.162Z,40.80
2018-12-06T10:40:12.530Z,39.47
2018-12-06T10:42:41.762Z,37.73
2018-12-06T10:45:10.238Z,39.03
2018-12-06T10:47:38.707Z,36.53
2018-12-06T10:50:07.639Z,37.37
2018-12-06T10:52:35.974Z,36.67
2018-12-06T10:55:04.439Z,36.73
2018-12-06T10:57:32.803Z,37.57
2018-12-06T11:00:01.167Z,36.53
2018-12-06T11:03:35.098Z,35.83
2018-12-06T11:06:03.614Z,37.33
2018-12-06T11:08:31.956Z,37.87
2018-12-06T11:11:00.324Z,38.80
2018-12-06T11:13:28.666Z,35.00
2018-12-06T11:15:57.018Z,34.27
2018-12-06T11:18:27.082Z,34.33
2018-12-06T11:20:55.455Z,38.23
2018-12-06T11:23:23.835Z,38.03
2018-12-06T11:25:52.168Z,38.53
2018-12-06T11:28:20.653Z,39.27
2018-12-06T11:30:49.789Z,40.67
2018-12-06T11:33:18.154Z,40.67
2018-12-06T11:35:46.570Z,39.13
2018-12-06T11:38:15.250Z,41.33
2018-12-06T11:40:43.583Z,41.80
2018-12-06T11:43:11.943Z,39.80
2018-12-06T11:45:40.262Z,42.83
2018-12-06T11:48:08.782Z,39.43
2018-12-06T11:50:37.206Z,41.40
2018-12-06T11:53:11.611Z,41.30
2018-12-06T11:55:39.949Z,40.23
2018-12-06T11:58:11.478Z,38.93
2018-12-06T12:00:38.679Z,39.33
2018-12-06T12:03:07.030Z,38.23
2018-12-06T12:05:36.298Z,40.60
2018-12-06T12:08:05.407Z,38.27
2018-12-06T12:10:33.754Z,41.13
2018-12-06T12:13:02.748Z,39.80
2018-12-06T12:15:31.115Z,38.63
2018-12-06T12:17:59.486Z,39.73
2018-12-06T12:20:28.878Z,40.43
2018-12-06T12:23:01.801Z,41.80
2018-12-06T12:25:30.138Z,37.07
2018-12-06T12:27:58.503Z,37.23
2018-12-06T12:30:31.059Z,37.13
2018-12-06T12:32:59.470Z,36.90
2018-12-06T12:35:27.780Z,38.10
2018-12-06T12:37:56.143Z,36.90
2018-12-06T12:40:24.502Z,36.90
2018-12-06T12:42:52.882Z,36.60
2018-12-06T12:45:21.220Z,37.60
2018-12-06T12:47:49.616Z,36.77
2018-12-06T12:50:17.947Z,33.93
2018-12-06T12:52:47.547Z,35.43
2018-12-06T12:55:15.907Z,36.20
2018-12-06T12:57:44.262Z,37.80
2018-12-06T13:00:12.894Z,36.03
2018-12-06T13:02:41.272Z,37.33
2018-12-06T13:05:09.778Z,37.80
2018-12-06T13:07:38.155Z,35.97
2018-12-06T13:10:06.765Z,38.00
2018-12-06T13:12:35.242Z,39.73
2018-12-06T13:15:04.187Z,40.53
2018-12-06T13:17:32.522Z,39.57
2018-12-06T13:20:00.877Z,37.13
2018-12-06T13:22:29.223Z,39.13
2018-12-06T13:24:57.583Z,39.03
2018-12-06T13:27:30.403Z,40.93
2018-12-06T13:29:58.892Z,41.67
2018-12-06T13:32:27.242Z,41.07
2018-12-06T13:34:55.739Z,41.50
2018-12-06T13:37:24.086Z,44.23
2018-12-06T13:39:52.587Z,43.73
2018-12-06T13:42:25.314Z,37.77
2018-12-06T13:44:58.212Z,42.30
2018-12-06T13:47:26.567Z,43.90
2018-12-06T13:49:55.098Z,44.33
2018-12-06T13:52:23.479Z,44.67
2018-12-06T13:54:51.855Z,39.77
2018-12-06T13:57:20.260Z,45.17
2018-12-06T13:59:48.675Z,42.97
2018-12-06T14:02:17.051Z,43.73
2018-12-06T14:04:45.570Z,44.00
2018-12-06T14:07:13.979Z,45.03
2018-12-06T14:09:42.335Z,43.83
2018-12-06T14:12:10.702Z,44.53
2018-12-06T14:14:39.075Z,45.17
2018-12-06T14:17:07.434Z,49.60
2018-12-06T14:19:35.805Z,45.47
2018-12-06T14:22:04.207Z,43.27
2018-12-06T14:24:32.562Z,44.53
2018-12-06T14:27:01.024Z,51.13
2018-12-06T14:29:29.370Z,47.00
2018-12-06T14:31:58.402Z,43.57
2018-12-06T14:34:30.483Z,47.60
2018-12-06T14:37:02.164Z,44.80
2018-12-06T14:39:29.270Z,46.10
2018-12-06T14:41:58.007Z,45.20
2018-12-06T14:44:26.455Z,45.57
2018-12-06T14:46:54.842Z,46.33
2018-12-06T14:49:23.322Z,45.73
2018-12-06T14:51:51.820Z,47.23
2018-12-06T14:54:20.151Z,45.57
2018-12-06T14:56:48.683Z,44.83
2018-12-06T14:59:17.123Z,45.97
2018-12-06T15:01:46.010Z,43.00
2018-12-06T15:04:14.376Z,45.40
2018-12-06T15:06:43.255Z,41.47
2018-12-06T15:09:11.647Z,39.20
2018-12-06T15:11:40.016Z,35.93
2018-12-06T15:14:08.366Z,36.30
2018-12-06T15:16:36.726Z,39.30
2018-12-06T15:19:05.078Z,39.43
2018-12-06T15:21:33.540Z,37.20
2018-12-06T15:24:01.862Z,37.87
2018-12-06T15:26:30.332Z,37.33
2018-12-06T15:28:58.809Z,36.77
2018-12-06T15:31:27.191Z,37.93
2018-12-06T15:33:55.562Z,37.57
2018-12-06T15:36:24.030Z,36.77
2018-12-06T15:38:54.125Z,38.30
2018-12-06T15:41:22.477Z,34.40
2018-12-06T15:43:52.836Z,37.97
2018-12-06T15:46:21.211Z,37.23
2018-12-06T15:48:49.555Z,38.13
2018-12-06T15:51:18.199Z,36.43
2018-12-06T15:53:46.586Z,36.73
2018-12-06T15:56:15.003Z,37.63
2018-12-06T15:58:47.618Z,37.03
2018-12-06T16:01:16.007Z,36.37
2018-12-06T16:03:44.359Z,35.90
2018-12-06T16:06:12.756Z,36.97
2018-12-06T16:08:41.095Z,36.00
2018-12-06T16:11:09.534Z,37.03
2018-12-06T16:13:38.667Z,36.93
2018-12-06T16:16:07.029Z,35.77
2018-12-06T16:18:35.402Z,39.67
2018-12-06T16:21:03.858Z,33.27
2018-12-06T16:23:32.230Z,33.20
2018-12-06T16:26:01.670Z,30.73
2018-12-06T16:28:30.701Z,32.77
2018-12-06T16:31:00.195Z,31.43
2018-12-06T16:33:29.617Z,30.73
2018-12-06T16:35:58.259Z,29.57
2018-12-06T16:38:27.231Z,28.77
2018-12-06T16:40:56.747Z,28.23
2018-12-06T16:43:26.149Z,28.90
2018-12-06T16:45:54.581Z,29.93
2018-12-06T16:48:23.850Z,29.40
2018-12-06T16:50:53.069Z,30.10
2018-12-06T16:53:22.513Z,29.87
2018-12-06T16:55:51.020Z,30.73
2018-12-06T16:58:25.135Z,30.97
2018-12-06T17:00:53.995Z,29.57
2018-12-06T17:03:23.068Z,31.37
2018-12-06T17:05:51.903Z,31.10
2018-12-06T17:08:20.243Z,28.67
2018-12-06T17:10:49.224Z,28.70
2018-12-06T17:13:18.223Z,30.10
2018-12-06T17:15:46.841Z,29.43
2018-12-06T17:18:15.439Z,31.37
2018-12-06T17:20:43.855Z,29.60
2018-12-06T17:23:12.237Z,35.90
2018-12-06T17:25:40.635Z,33.03
2018-12-06T17:28:08.987Z,33.47
2018-12-06T17:30:37.337Z,34.13
2018-12-06T17:33:10.164Z,34.53
2018-12-06T17:35:38.522Z,33.00
2018-12-06T17:38:06.863Z,34.30
2018-12-06T17:40:35.296Z,31.37
2018-12-06T17:43:05.500Z,32.90
2018-12-06T17:45:34.676Z,33.87
2018-12-06T17:48:03.053Z,32.70
2018-12-06T17:50:31.424Z,32.93
2018-12-06T17:52:59.835Z,33.50
2018-12-06T17:55:28.360Z,32.60
2018-12-06T17:57:56.750Z,33.13
2018-12-06T18:00:25.198Z,33.10
2018-12-06T18:02:53.914Z,34.17
2018-12-06T18:05:22.373Z,36.77
2018-12-06T18:07:50.738Z,37.43
2018-12-06T18:10:20.218Z,39.23
2018-12-06T18:13:22.698Z,38.97
2018-12-06T18:15:51.791Z,38.57
2018-12-06T18:18:20.159Z,37.70
2018-12-06T18:20:48.531Z,39.17
2018-12-06T18:23:16.964Z,40.23
2018-12-06T18:25:45.444Z,39.33
2018-12-06T18:28:13.787Z,38.90
2018-12-06T18:30:42.170Z,40.00
2018-12-06T18:33:11.764Z,40.87
2018-12-06T18:35:40.281Z,41.43
2018-12-06T18:38:08.631Z,42.30
2018-12-06T18:40:37.132Z,42.17
2018-12-06T18:43:05.611Z,40.40
2018-12-06T18:45:34.205Z,42.03
2018-12-06T18:48:03.074Z,37.93
2018-12-06T18:50:31.498Z,41.87
2018-12-06T18:52:59.991Z,40.63
2018-12-06T18:55:28.840Z,39.60
2018-12-06T18:57:57.396Z,40.33
2018-12-06T19:00:25.819Z,39.87
2018-12-06T19:02:55.581Z,38.70
2018-12-06T19:05:24.107Z,39.90
2018-12-06T19:07:52.458Z,40.33
2018-12-06T19:10:21.040Z,39.77
2018-12-06T19:12:50.335Z,38.83
2018-12-06T19:15:18.820Z,39.10
2018-12-06T19:17:47.316Z,36.87
2018-12-06T19:20:15.669Z,37.50
2018-12-06T19:22:44.062Z,34.77
2018-12-06T19:25:12.419Z,32.53
2018-12-06T19:27:40.852Z,32.53
2018-12-06T19:30:10.347Z,32.63
2018-12-06T19:32:38.743Z,31.20
2018-12-06T19:35:07.187Z,33.87
2018-12-06T19:37:36.195Z,29.77
2018-12-06T19:40:05.188Z,30.97
2018-12-06T19:42:38.718Z,31.33
2018-12-06T19:45:04.375Z,30.97
2018-12-06T19:47:32.778Z,32.87
2018-12-06T19:50:01.157Z,32.33
2018-12-06T19:52:29.529Z,30.33
2018-12-06T19:55:01.566Z,33.00
2018-12-06T19:57:30.015Z,31.87
2018-12-06T19:59:58.390Z,34.37
2018-12-06T20:02:26.915Z,34.93
2018-12-06T20:04:55.319Z,34.10
2018-12-06T20:07:23.683Z,37.63
2018-12-06T20:09:52.082Z,37.40
2018-12-06T20:12:20.450Z,37.23
2018-12-06T20:14:48.839Z,36.13
2018-12-06T20:17:17.234Z,38.03
2018-12-06T20:19:45.751Z,39.97
2018-12-06T20:22:14.313Z,38.70
2018-12-06T20:24:42.682Z,39.93
2018-12-06T20:27:11.133Z,38.17
2018-12-06T20:29:39.748Z,39.40
2018-12-06T20:32:14.457Z,38.50
2018-12-06T20:34:38.508Z,38.93
2018-12-06T20:37:07.379Z,40.33
2018-12-06T20:39:35.780Z,39.80
2018-12-06T20:42:04.587Z,39.57
2018-12-06T20:44:32.946Z,39.80
2018-12-06T20:47:01.326Z,39.60
2018-12-06T20:49:29.927Z,38.60
2018-12-06T20:51:58.300Z,39.10
2018-12-06T20:54:26.735Z,39.20
2018-12-06T20:56:55.230Z,41.67
2018-12-06T20:59:24.340Z,39.23
2018-12-06T21:01:52.762Z,39.13
2018-12-06T21:04:21.127Z,40.93
2018-12-06T21:06:49.534Z,39.97
2018-12-06T21:09:18.698Z,38.73
2018-12-06T21:11:47.287Z,39.53
2018-12-06T21:14:21.921Z,39.30
2018-12-06T21:16:46.121Z,39.70
2018-12-06T21:19:14.495Z,40.07
2018-12-06T21:21:42.891Z,38.87
2018-12-06T21:24:11.711Z,39.03
2018-12-06T21:26:41.115Z,39.40
2018-12-06T21:29:10.556Z,41.00
2018-12-06T21:31:39.852Z,40.07
2018-12-06T21:34:09.307Z,42.33
2018-12-06T21:36:37.704Z,42.97
2018-12-06T21:39:08.139Z,43.33
2018-12-06T21:41:36.583Z,43.43
2018-12-06T21:44:05.163Z,45.83
2018-12-06T21:46:33.583Z,45.43
2018-12-06T21:49:02.051Z,45.47
2018-12-06T21:51:30.427Z,44.03
2018-12-06T21:53:58.787Z,42.90
2018-12-06T21:56:27.257Z,43.13
2018-12-06T21:58:55.629Z,45.40
2018-12-06T22:01:24.104Z,43.87
2018-12-06T22:03:53.420Z,43.93
2018-12-06T22:06:21.986Z,42.97
2018-12-06T22:08:50.391Z,46.37
2018-12-06T22:11:18.859Z,44.87
2018-12-06T22:13:47.353Z,48.00
2018-12-06T22:16:15.846Z,45.37
2018-12-06T22:18:44.288Z,46.63
2018-12-06T22:21:12.745Z,45.37
2018-12-06T22:23:41.200Z,48.40
2018-12-06T22:26:09.642Z,44.77
2018-12-06T22:28:38.118Z,45.57
2018-12-06T22:31:06.536Z,48.30
2018-12-06T22:33:35.003Z,45.33
2018-12-06T22:36:03.467Z,45.27
2018-12-06T22:38:34.286Z,45.27
2018-12-06T22:41:02.422Z,47.03
2018-12-06T22:43:30.878Z,46.97
2018-12-06T22:46:00.401Z,42.47
2018-12-06T22:48:28.939Z,44.13
2018-12-06T22:50:57.380Z,40.70
2018-12-06T22:53:25.970Z,44.50
2018-12-06T22:55:54.431Z,41.93
2018-12-06T22:58:22.970Z,41.10
2018-12-06T23:00:54.355Z,41.57
2018-12-06T23:03:23.229Z,36.67
2018-12-06T23:05:52.891Z,39.43
2018-12-06T23:08:21.574Z,39.70
2018-12-06T23:10:50.280Z,40.10
2018-12-06T23:13:18.886Z,39.43
2018-12-06T23:15:47.416Z,39.87
2018-12-06T23:18:15.923Z,42.13
2018-12-06T23:20:44.283Z,41.93
2018-12-06T23:23:12.662Z,41.73
2018-12-06T23:25:47.474Z,43.80
2018-12-06T23:28:15.991Z,41.90
2018-12-06T23:30:44.392Z,42.63
2018-12-06T23:33:12.775Z,40.90
2018-12-06T23:35:41.175Z,37.33
2018-12-06T23:38:09.666Z,40.23
2018-12-06T23:40:38.043Z,37.47
2018-12-06T23:43:06.412Z,37.83
2018-12-06T23:45:34.805Z,35.87
2018-12-06T23:48:03.218Z,34.33
2018-12-06T23:50:31.715Z,34.93
2018-12-06T23:53:00.052Z,32.50
2018-12-06T23:55:29.557Z,33.80
2018-12-06T23:57:57.914Z,32.30
